Terminal Aerodrome Forecast
Issued by NWS

Home | Current Version | Previous Version | Text Only | Print | Product List | Glossary On
Versions: 1 2 3 4 5 6 7 8 9 10 11 12 13 14 15 16 17 18 19 20 21 22 23 24 25
000
FTUS46 KMTR 200800 AAA
TAFSFO
TAF AMD
KSFO 200858Z 2009/2112 14003KT P6SM VCSH SCT004 BKN010 OVC015
     FM201200 17004KT P6SM OVC015
     FM201700 18004KT P6SM BKN025 OVC040
     FM201900 18005KT P6SM SCT025 OVC050
     FM202100 19005KT P6SM SCT025 BKN050
     FM210600 20004KT P6SM OVC015=

USA.gov is the U.S. government's official web portal to all federal, state and local government web resources and services.